Airfield :
LOGIN :

Register | Disclaimer

   EN    FR    IT 

 










Legend :    VFR   Marginal VFR   IFR   Intensive IFR   Very Intensive IFR
Visi :
Ceiling :
>= 8 km
>= 3000ft
5 to 8 km
1000 to 3000 ft
1500m to 5 km
500 to 1000 ft
800 to 1500m
200 to 500 ft
< 800m
< 200 ft
Symbols :   Thunderstorms  Fog  Heavy snow  Heavy precipitations  Wind > 20 kt
SIGMETs :     Misc.  Thunderstorms  Icing  Turbulence  Mountain Waves  Volcanic Ashes






- Airport Elevation : 412 ft
- IATA code : ADB


LTBJ - Adnan Menderes

CURRENT METAR :
  • 181050Z 19005KT 120V230 8000 FEW030 26/16 Q1017 NOSIG

EXPIRED METARs :
  • 181020Z 19005KT 140V230 8000 FEW030 25/17 Q1018 NOSIG RMK RWY16 17005KT 100V200
  • 180950Z 16003KT 110V220 8000 FEW010 24/17 Q1018 NOSIG RMK RWY16 VRB03KT
  • 180920Z VRB02KT 7000 FEW010 23/18 Q1018 NOSIG RMK RWY16 17004KT 120V220
  • 180850Z 16004KT 100V250 6000 FEW010 22/18 Q1019 NOSIG RMK RWY16 21005KT 170V230
  • 180820Z 17004KT 120V210 4900 BR SCT004 20/17 Q1019 BECMG TL1000 8000

TAF TAF LTBJ
Valid from the 18 at 06:00 until the 19 at 06:00 UTC


180440Z 1806/1906 VRB02KT 0400 FG VV002
BECMG 1806/1808 4000 BR NSC
BECMG 1808/1810 8000 SCT030
PROB30
TEMPO 1810/1814 -SHRA
BECMG 1816/1818 CAVOK



MET'MAP, your aeronautical weather chart ! - Copyright ORBIFLY December 2007 - Disclaimer

ORBIFLY MET'MAP TEAM :

Programming & Development : Alexandra Zaïnal
Concept & Development : Baudouin d'Aumeries
Co-Development & Prog : Marc-Olivier Méhu
Technical & hardware support : Manuel Goepfert

Contact : metmap@orbifly.com




SOURCES & CREDITS :

   NOAA